Time;durP1;ratioP1;P1;durP2;ratioP2;P2;SDS_P1;SDS_P2;PMS_P1;PMS_P2;Temp;Humidity;BMP_temperature;BMP_pressure;BME280_temperature;BME280_humidity;BME280_pressure;Samples;Min_cycle;Max_cycle;Signal;HPM_P1;HPM_P2
2021/03/14 00:00:28;;;;;;;19.25;4.15;;;;;;;4.25;82.86;97432.45;2178701;81;21300;-73
2021/03/14 00:03:31;;;;;;;17.48;3.30;;;;;;;4.22;83.22;97433.93;2178400;81;21139;-65
2021/03/14 00:06:33;;;;;;;18.15;3.98;;;;;;;4.20;83.19;97425.41;2178533;81;21276;-67
2021/03/14 00:09:35;;;;;;;14.87;3.05;;;;;;;4.21;83.13;97421.42;2178423;81;22998;-66
2021/03/14 00:12:37;;;;;;;14.85;3.50;;;;;;;4.22;83.26;97410.57;2178498;82;21752;-67
2021/03/14 00:15:39;;;;;;;10.43;2.92;;;;;;;4.22;82.58;97406.67;2150697;82;21689;-67
2021/03/14 00:18:41;;;;;;;9.90;2.67;;;;;;;4.19;82.93;97410.28;2178624;81;21254;-66
2021/03/14 00:21:44;;;;;;;12.98;3.00;;;;;;;4.19;82.64;97418.53;2178518;81;21257;-70
2021/03/14 00:24:46;;;;;;;15.23;3.55;;;;;;;4.16;82.47;97420.37;2178505;81;21281;-66
2021/03/14 00:27:48;;;;;;;26.20;4.90;;;;;;;4.13;82.54;97433.52;2178520;81;21284;-68
2021/03/14 00:30:50;;;;;;;19.50;3.90;;;;;;;4.12;83.14;97434.91;2178447;81;21610;-69
2021/03/14 00:33:52;;;;;;;13.75;3.37;;;;;;;4.10;83.04;97438.89;2178576;81;21721;-69
2021/03/14 00:36:54;;;;;;;18.82;3.52;;;;;;;4.09;82.97;97428.12;2178559;81;21768;-68
2021/03/14 00:39:56;;;;;;;11.68;3.22;;;;;;;4.08;83.05;97420.44;2178515;81;21303;-67
2021/03/14 00:42:58;;;;;;;11.12;2.92;;;;;;;4.06;82.88;97420.52;2178647;81;21765;-66
2021/03/14 00:46:00;;;;;;;12.47;3.10;;;;;;;4.04;82.99;97415.89;2178560;81;21280;-65
2021/03/14 00:49:02;;;;;;;15.55;3.70;;;;;;;4.05;83.04;97413.69;2178582;81;21693;-66
2021/03/14 00:52:04;;;;;;;12.82;3.40;;;;;;;4.05;82.85;97408.94;2150913;82;21701;-67
2021/03/14 00:55:06;;;;;;;12.93;3.10;;;;;;;4.01;82.62;97421.27;2178464;81;21716;-66
2021/03/14 00:58:08;;;;;;;12.28;3.27;;;;;;;3.98;82.56;97431.82;2178440;81;21736;-66
2021/03/14 01:01:10;;;;;;;15.78;3.25;;;;;;;3.96;83.14;97424.09;2178431;81;21704;-67
2021/03/14 01:04:12;;;;;;;14.83;3.58;;;;;;;3.96;82.83;97418.08;2178453;81;21332;-67
2021/03/14 01:07:14;;;;;;;16.35;3.70;;;;;;;3.95;82.58;97421.59;2150777;82;21293;-70
2021/03/14 01:10:16;;;;;;;20.02;4.42;;;;;;;3.91;82.39;97415.75;2173540;81;21296;-66
2021/03/14 01:13:18;;;;;;;17.85;3.83;;;;;;;3.88;82.31;97415.08;2161111;82;21706;-67
2021/03/14 01:16:20;;;;;;;17.57;3.85;;;;;;;3.86;82.48;97413.87;2161054;82;21618;-66
2021/03/14 01:19:22;;;;;;;18.05;4.03;;;;;;;3.87;83.03;97409.53;2161059;82;21515;-66
2021/03/14 01:22:24;;;;;;;17.98;3.98;;;;;;;3.87;82.88;97399.98;2161303;82;21100;-66
2021/03/14 01:25:27;;;;;;;20.52;4.67;;;;;;;3.89;82.88;97412.86;2139960;82;21765;-64
2021/03/14 01:28:29;;;;;;;19.87;3.47;;;;;;;3.87;82.62;97409.53;2161160;82;21666;-71
2021/03/14 01:31:31;;;;;;;18.40;4.20;;;;;;;3.87;82.59;97410.83;2161363;81;21281;-67
2021/03/14 01:34:33;;;;;;;20.32;4.90;;;;;;;3.85;82.44;97401.84;2161015;82;21100;-65
2021/03/14 01:37:35;;;;;;;15.38;4.05;;;;;;;3.84;82.43;97400.16;2161058;82;21148;-66
2021/03/14 01:40:37;;;;;;;16.90;4.05;;;;;;;3.81;82.70;97405.05;2160990;82;21143;-66
2021/03/14 01:43:39;;;;;;;22.52;4.87;;;;;;;3.81;82.60;97404.23;2161007;82;21143;-65
2021/03/14 01:46:41;;;;;;;27.58;6.50;;;;;;;3.80;82.54;97408.56;2161062;82;21140;-67
2021/03/14 01:49:43;;;;;;;23.12;5.00;;;;;;;3.84;82.65;97403.23;2161071;82;21131;-69
2021/03/14 01:52:45;;;;;;;17.07;3.98;;;;;;;3.86;82.61;97402.67;2161149;82;21147;-70
2021/03/14 01:55:47;;;;;;;19.57;4.60;;;;;;;3.86;83.02;97389.70;2161050;82;21175;-66
2021/03/14 01:58:49;;;;;;;19.23;5.78;;;;;;;3.86;83.02;97389.70;2161400;82;21164;-68
2021/03/14 02:01:51;;;;;;;23.32;7.67;;;;;;;3.91;82.78;97399.37;2161431;82;21308;-66
2021/03/14 02:04:53;;;;;;;21.52;6.67;;;;;;;3.94;82.66;97400.48;2161462;82;21592;-65
2021/03/14 02:07:55;;;;;;;21.33;4.92;;;;;;;3.98;82.62;97401.52;2161703;82;21294;-66
2021/03/14 02:10:57;;;;;;;18.75;4.90;;;;;;;4.03;82.53;97400.42;2161416;82;21310;-65
2021/03/14 02:13:59;;;;;;;18.12;4.40;;;;;;;4.07;82.12;97401.92;2161235;82;21269;-66
2021/03/14 02:17:01;;;;;;;21.10;4.72;;;;;;;3.98;81.88;97408.00;2161224;82;21281;-65
2021/03/14 02:20:03;;;;;;;19.10;4.60;;;;;;;3.95;82.21;97409.92;2161315;82;21714;-65
2021/03/14 02:23:05;;;;;;;22.55;5.10;;;;;;;3.95;81.96;97413.81;2161292;82;21722;-66
2021/03/14 02:26:07;;;;;;;20.08;5.55;;;;;;;3.97;81.90;97413.28;2161298;82;21741;-67
2021/03/14 02:29:10;;;;;;;;;;;;;;;3.96;81.73;97415.02;2163757;81;21729;-65
2021/03/14 02:32:12;;;;;;;18.07;4.42;;;;;;;3.91;81.57;97399.37;2161203;82;20245;-65
2021/03/14 02:35:14;;;;;;;17.23;4.03;;;;;;;3.86;81.82;97400.90;2161407;82;21282;-66
2021/03/14 02:38:17;;;;;;;18.70;4.33;;;;;;;3.79;82.13;97394.38;2161049;82;21296;-66
2021/03/14 02:41:19;;;;;;;17.85;4.20;;;;;;;3.79;82.05;97400.43;2161168;82;21143;-66
2021/03/14 02:44:21;;;;;;;18.00;4.40;;;;;;;3.79;82.02;97401.73;2161162;82;21187;-65
2021/03/14 02:47:23;;;;;;;19.32;4.10;;;;;;;3.81;81.97;97398.57;2161172;82;21107;-66
2021/03/14 02:50:25;;;;;;;16.42;4.28;;;;;;;3.84;81.94;97393.68;2161270;82;21262;-66
2021/03/14 02:53:27;;;;;;;17.70;4.45;;;;;;;3.81;81.83;97385.60;2161189;82;21714;-67
2021/03/14 02:56:29;;;;;;;16.90;4.00;;;;;;;3.85;82.00;97391.47;2161194;82;21603;-66
2021/03/14 02:59:31;;;;;;;20.40;5.20;;;;;;;3.89;82.01;97389.52;2161142;82;21603;-66
2021/03/14 03:02:33;;;;;;;23.70;7.08;;;;;;;3.89;81.58;97390.34;2161154;82;21550;-65
2021/03/14 03:05:35;;;;;;;23.35;6.37;;;;;;;3.89;81.58;97390.34;2161405;82;21150;-66
2021/03/14 03:08:37;;;;;;;23.83;7.83;;;;;;;3.89;81.46;97399.42;2161179;82;21139;-67
2021/03/14 03:11:39;;;;;;;21.68;6.40;;;;;;;3.82;81.44;97405.88;2170656;81;21289;-66
2021/03/14 03:14:41;;;;;;;22.73;6.08;;;;;;;3.84;81.82;97419.62;2178554;81;21269;-68
2021/03/14 03:17:43;;;;;;;22.13;6.25;;;;;;;3.90;81.50;97432.70;2178553;81;21257;-66
2021/03/14 03:20:45;;;;;;;23.02;5.58;;;;;;;3.86;81.46;97435.92;2178509;81;21272;-65
2021/03/14 03:23:47;;;;;;;21.93;5.15;;;;;;;3.87;81.63;97436.30;2150873;82;21325;-67
2021/03/14 03:26:49;;;;;;;23.27;6.72;;;;;;;3.90;81.41;97435.30;2178542;81;21732;-68
2021/03/14 03:29:51;;;;;;;24.65;6.53;;;;;;;3.81;81.17;97428.40;2178573;81;21110;-68
2021/03/14 03:32:53;;;;;;;22.32;6.30;;;;;;;3.81;81.53;97440.07;2151100;82;21717;-66
2021/03/14 03:35:55;;;;;;;23.32;5.70;;;;;;;3.84;81.52;97432.59;2178576;81;21276;-68
2021/03/14 03:38:57;;;;;;;17.23;4.80;;;;;;;3.88;81.42;97431.50;2178568;81;21772;-67
2021/03/14 03:41:59;;;;;;;20.57;5.15;;;;;;;3.89;81.39;97431.84;2178532;81;21708;-65
2021/03/14 03:45:01;;;;;;;21.02;5.30;;;;;;;3.90;81.19;97436.59;2178502;81;21780;-70
2021/03/14 03:48:03;;;;;;;20.05;5.60;;;;;;;3.90;81.07;97449.57;2178547;81;21272;-67
2021/03/14 03:51:05;;;;;;;20.00;5.92;;;;;;;3.88;81.01;97448.80;2178474;81;21264;-66
2021/03/14 03:54:07;;;;;;;22.42;6.00;;;;;;;3.88;80.92;97447.50;2178540;81;21292;-67
2021/03/14 03:57:09;;;;;;;20.12;5.72;;;;;;;3.87;80.95;97449.75;2178537;81;21261;-69
2021/03/14 04:00:11;;;;;;;22.58;6.25;;;;;;;3.89;81.21;97445.30;2178554;81;21292;-68
2021/03/14 04:03:13;;;;;;;24.75;7.10;;;;;;;3.89;80.81;97443.52;2178597;81;21288;-71
2021/03/14 04:06:15;;;;;;;22.67;6.50;;;;;;;3.82;80.62;97435.70;2178617;81;21696;-68
2021/03/14 04:09:17;;;;;;;22.45;6.72;;;;;;;3.79;80.72;97437.18;2150844;82;21764;-69
2021/03/14 04:12:19;;;;;;;21.42;6.15;;;;;;;3.76;80.65;97435.59;2166250;81;21325;-68
2021/03/14 04:15:21;;;;;;;22.17;6.22;;;;;;;3.69;80.63;97429.06;2161072;82;21155;-67
2021/03/14 04:18:23;;;;;;;23.83;6.60;;;;;;;3.69;80.63;97429.06;2161087;82;21162;-68
2021/03/14 04:21:25;;;;;;;23.02;6.17;;;;;;;3.74;80.52;97441.34;2161031;82;21155;-66
2021/03/14 04:24:27;;;;;;;26.48;7.28;;;;;;;3.76;80.39;97433.47;2161047;82;21183;-67
2021/03/14 04:27:29;;;;;;;26.48;7.85;;;;;;;3.77;80.34;97439.86;2161331;82;21278;-67
2021/03/14 04:30:31;;;;;;;26.93;7.67;;;;;;;3.76;80.02;97436.89;2161080;82;21095;-66
2021/03/14 04:33:33;;;;;;;26.02;7.72;;;;;;;3.73;80.11;97434.94;2161096;82;21167;-68
2021/03/14 04:36:35;;;;;;;25.32;7.75;;;;;;;3.75;80.02;97433.08;2161077;82;21588;-66
2021/03/14 04:39:37;;;;;;;26.50;7.90;;;;;;;3.73;79.91;97427.98;2161089;82;21602;-66
2021/03/14 04:42:40;;;;;;;27.67;7.10;;;;;;;3.71;79.70;97430.31;2161068;82;21178;-65
2021/03/14 04:45:42;;;;;;;23.83;6.15;;;;;;;3.69;79.74;97430.37;2161068;82;21183;-66
2021/03/14 04:48:44;;;;;;;27.82;8.00;;;;;;;3.68;79.67;97424.83;2161025;82;21123;-66
2021/03/14 04:51:46;;;;;;;26.77;7.40;;;;;;;3.67;79.60;97428.33;2161328;82;21285;-66
2021/03/14 04:54:48;;;;;;;23.18;6.08;;;;;;;3.67;79.54;97421.02;2161133;82;21614;-66
2021/03/14 04:57:50;;;;;;;23.65;5.55;;;;;;;3.61;79.40;97423.02;2161067;82;21570;-70
2021/03/14 05:00:52;;;;;;;19.55;4.87;;;;;;;3.59;79.42;97422.72;2161014;82;21583;-68
2021/03/14 05:03:55;;;;;;;19.70;4.92;;;;;;;3.57;79.42;97428.00;2138975;82;21785;-68
2021/03/14 05:06:57;;;;;;;19.52;4.40;;;;;;;3.56;79.38;97430.67;2161310;82;21277;-66
2021/03/14 05:09:59;;;;;;;19.25;4.30;;;;;;;3.53;79.26;97427.78;2161322;82;21309;-66
2021/03/14 05:13:01;;;;;;;19.02;4.17;;;;;;;3.54;79.24;97424.28;2169347;81;21285;-69
2021/03/14 05:16:03;;;;;;;17.10;4.33;;;;;;;3.56;79.23;97428.08;2171439;82;21281;-66
2021/03/14 05:19:05;;;;;;;17.82;4.47;;;;;;;3.58;79.37;97417.19;2171219;82;21285;-67
2021/03/14 05:22:07;;;;;;;21.27;5.25;;;;;;;3.64;79.11;97415.06;2171295;82;21285;-68
2021/03/14 05:25:09;;;;;;;18.37;4.72;;;;;;;3.69;79.00;97417.40;2171160;82;21298;-68
2021/03/14 05:28:11;;;;;;;24.00;7.45;;;;;;;3.73;78.80;97418.08;2171678;82;21143;-68
2021/03/14 05:31:14;;;;;;;24.20;7.33;;;;;;;3.73;78.57;97415.48;2171650;82;21272;-67
2021/03/14 05:34:16;;;;;;;20.92;4.30;;;;;;;3.73;78.46;97415.02;2171185;82;21276;-68
2021/03/14 05:37:18;;;;;;;18.57;4.95;;;;;;;3.78;78.57;97418.20;2171512;82;21320;-67
2021/03/14 05:40:20;;;;;;;24.25;5.15;;;;;;;3.84;78.43;97419.62;2171339;82;21293;-68
2021/03/14 05:43:22;;;;;;;20.77;4.53;;;;;;;3.91;78.01;97419.64;2171384;82;21281;-68
2021/03/14 05:46:23;;;;;;;20.08;4.42;;;;;;;3.94;78.20;97424.66;2171424;82;21297;-68
2021/03/14 05:49:25;;;;;;;24.43;7.72;;;;;;;4.00;78.31;97414.40;2171739;82;21143;-68
2021/03/14 05:52:27;;;;;;;25.50;8.05;;;;;;;4.05;78.23;97412.39;2171351;82;21305;-69
2021/03/14 05:55:29;;;;;;;26.35;7.28;;;;;;;4.14;78.06;97414.44;2171381;82;21277;-66
2021/03/14 05:58:31;;;;;;;28.55;6.67;;;;;;;4.21;78.02;97417.53;2171389;82;21312;-66
2021/03/14 06:01:33;;;;;;;24.92;6.17;;;;;;;4.27;77.89;97422.84;2171361;82;21296;-66
2021/03/14 06:04:36;;;;;;;20.40;5.05;;;;;;;4.31;77.80;97436.84;2171489;82;21289;-66
2021/03/14 06:07:38;;;;;;;24.12;6.60;;;;;;;4.33;77.51;97435.45;2171339;82;21288;-65
2021/03/14 06:10:40;;;;;;;24.80;6.50;;;;;;;4.38;77.69;97443.79;2171687;82;21134;-66
2021/03/14 06:13:42;;;;;;;30.30;8.43;;;;;;;4.45;77.59;97452.06;2178388;82;21167;-65
2021/03/14 06:16:44;;;;;;;25.57;7.67;;;;;;;4.55;77.73;97456.27;2178651;81;21268;-66
2021/03/14 06:19:46;;;;;;;31.73;10.48;;;;;;;4.65;77.48;97470.38;2178649;81;21268;-67
2021/03/14 06:22:48;;;;;;;25.88;7.53;;;;;;;4.73;77.29;97459.56;2178629;81;21273;-68
2021/03/14 06:25:50;;;;;;;22.13;5.75;;;;;;;4.82;76.99;97459.83;2178958;81;21162;-66
2021/03/14 06:28:52;;;;;;;27.15;7.92;;;;;;;4.95;76.86;97463.83;2178618;81;21308;-68
2021/03/14 06:31:54;;;;;;;27.00;7.95;;;;;;;5.07;76.99;97461.43;2178613;82;21289;-67
2021/03/14 06:34:56;;;;;;;29.15;8.28;;;;;;;5.20;76.80;97470.14;2178509;81;21276;-66
2021/03/14 06:37:58;;;;;;;31.45;8.83;;;;;;;5.30;76.30;97468.69;2178608;81;21254;-67
2021/03/14 06:41:01;;;;;;;33.28;12.00;;;;;;;5.36;75.85;97463.09;2150715;82;21265;-66
2021/03/14 06:44:03;;;;;;;27.27;8.70;;;;;;;5.45;75.72;97477.77;2178950;81;21155;-66
2021/03/14 06:47:05;;;;;;;34.63;11.80;;;;;;;5.49;75.40;97476.18;2178600;81;21261;-70
2021/03/14 06:50:09;;;;;;;26.68;8.83;;;;;;;5.57;75.11;97483.50;2178500;81;21546;-70
2021/03/14 06:53:11;;;;;;;27.70;8.50;;;;;;;5.64;75.22;97488.69;2178841;81;21712;-67
2021/03/14 06:56:13;;;;;;;22.93;6.40;;;;;;;5.72;74.88;97489.53;2178710;81;21808;-70
2021/03/14 06:59:15;;;;;;;25.05;7.58;;;;;;;5.75;73.87;97497.59;2178589;81;21281;-69
2021/03/14 07:02:17;;;;;;;29.10;8.93;;;;;;;5.80;73.87;97496.84;2178838;81;21154;-68
2021/03/14 07:05:19;;;;;;;29.72;9.08;;;;;;;5.87;73.89;97494.23;2178816;81;21320;-70
2021/03/14 07:08:21;;;;;;;30.60;9.90;;;;;;;5.88;73.57;97483.72;2178678;81;21261;-66
2021/03/14 07:11:23;;;;;;;34.92;10.88;;;;;;;6.00;73.87;97489.11;2176691;81;21922;-66
2021/03/14 07:14:25;;;;;;;32.15;10.43;;;;;;;6.06;73.32;97490.02;2161294;82;21662;-66
2021/03/14 07:17:27;;;;;;;30.55;9.88;;;;;;;6.13;73.38;97493.89;2161255;82;21293;-65
2021/03/14 07:20:29;;;;;;;28.98;8.65;;;;;;;6.24;73.50;97488.02;2161392;82;21258;-66
2021/03/14 07:23:31;;;;;;;30.23;9.93;;;;;;;6.32;73.01;97487.05;2161221;82;21273;-66
2021/03/14 07:26:33;;;;;;;27.15;8.65;;;;;;;6.33;72.44;97489.18;2140056;82;21250;-67
2021/03/14 07:29:35;;;;;;;30.65;10.15;;;;;;;6.32;72.32;97496.61;2161416;82;21329;-66
2021/03/14 07:32:37;;;;;;;30.15;9.88;;;;;;;6.32;72.47;97488.80;2161113;82;21127;-66
2021/03/14 07:35:39;;;;;;;34.38;12.40;;;;;;;6.47;72.39;97486.51;2161146;82;21139;-66
2021/03/14 07:38:40;;;;;;;28.15;10.32;;;;;;;6.74;72.63;97499.48;2161142;82;21131;-67
2021/03/14 07:41:43;;;;;;;27.40;8.45;;;;;;;7.03;72.48;97489.35;2161124;82;21104;-67
2021/03/14 07:44:45;;;;;;;25.70;7.90;;;;;;;7.17;71.07;97484.48;2161458;82;21163;-67
2021/03/14 07:47:47;;;;;;;25.60;8.05;;;;;;;7.20;70.80;97489.52;2140009;82;21273;-68
2021/03/14 07:50:49;;;;;;;25.77;7.40;;;;;;;7.55;70.49;97481.00;2161197;82;21277;-66
2021/03/14 07:53:51;;;;;;;24.85;7.12;;;;;;;7.88;69.88;97499.97;2161142;82;21127;-66
2021/03/14 07:56:54;;;;;;;24.72;7.42;;;;;;;8.18;68.94;97510.95;2161216;82;21309;-66
2021/03/14 07:59:56;;;;;;;24.75;6.12;;;;;;;8.18;67.24;97518.31;2161032;82;21606;-69
2021/03/14 08:02:59;;;;;;;20.85;5.55;;;;;;;8.08;67.66;97516.00;2160988;82;21096;-71
2021/03/14 08:06:01;;;;;;;20.60;5.72;;;;;;;7.99;67.92;97529.25;2161082;82;21171;-66
2021/03/14 08:09:03;;;;;;;18.92;5.40;;;;;;;8.05;67.05;97513.61;2161113;82;21139;-66
2021/03/14 08:12:05;;;;;;;21.15;5.90;;;;;;;7.86;66.93;97524.06;2165256;81;21127;-69
2021/03/14 08:15:07;;;;;;;19.80;5.45;;;;;;;7.65;66.12;97525.56;2178601;81;21276;-68
2021/03/14 08:18:09;;;;;;;22.82;6.05;;;;;;;7.55;67.92;97534.02;2150635;82;21274;-67
2021/03/14 08:21:11;;;;;;;22.62;7.35;;;;;;;7.62;67.80;97541.78;2178488;81;21284;-66
2021/03/14 08:24:13;;;;;;;22.02;6.78;;;;;;;7.78;67.22;97531.59;2178508;81;21285;-68
2021/03/14 08:27:15;;;;;;;25.48;7.62;;;;;;;7.93;67.91;97534.88;2178709;82;21175;-67
2021/03/14 08:30:17;;;;;;;27.98;7.47;;;;;;;8.00;64.85;97545.25;2178492;81;21130;-67
2021/03/14 08:33:20;;;;;;;19.37;5.47;;;;;;;8.24;66.18;97542.67;2178526;81;21288;-66
2021/03/14 08:36:22;;;;;;;20.65;5.92;;;;;;;8.54;65.92;97548.45;2178400;81;21292;-66
2021/03/14 08:39:24;;;;;;;26.42;8.60;;;;;;;8.58;64.86;97558.56;2178518;81;21265;-66
2021/03/14 08:42:26;;;;;;;23.47;6.60;;;;;;;8.47;63.66;97560.63;2178489;81;21304;-66
2021/03/14 08:45:28;;;;;;;23.55;5.35;;;;;;;8.41;62.96;97558.44;2178958;81;21154;-66
2021/03/14 08:48:30;;;;;;;19.67;4.60;;;;;;;8.11;63.12;97557.08;2178851;81;21285;-66
2021/03/14 08:51:32;;;;;;;20.17;4.90;;;;;;;8.00;62.38;97569.23;2178816;81;21293;-66
2021/03/14 08:54:34;;;;;;;21.57;4.80;;;;;;;7.75;63.57;97562.64;2178713;81;21305;-66
2021/03/14 08:57:36;;;;;;;17.30;3.83;;;;;;;7.87;62.67;97584.92;2178982;81;21159;-66
2021/03/14 09:00:38;;;;;;;14.80;3.83;;;;;;;7.85;59.62;97590.26;2178553;81;21134;-66
2021/03/14 09:03:40;;;;;;;22.05;4.50;;;;;;;7.94;59.88;97571.35;2178473;81;21280;-66
2021/03/14 09:06:42;;;;;;;17.48;4.05;;;;;;;7.99;60.48;97595.83;2178447;81;21296;-66
2021/03/14 09:09:44;;;;;;;20.20;4.10;;;;;;;8.19;59.52;97607.94;2178425;81;21602;-66
2021/03/14 09:12:46;;;;;;;16.55;3.22;;;;;;;8.21;58.70;97610.81;2178399;81;21724;-66
2021/03/14 09:15:48;;;;;;;14.68;3.33;;;;;;;8.13;57.79;97610.06;2178542;81;21284;-66
2021/03/14 09:18:50;;;;;;;12.25;2.80;;;;;;;8.23;57.95;97610.25;2178448;81;21296;-68
2021/03/14 09:21:52;;;;;;;19.40;3.87;;;;;;;8.21;56.34;97633.02;2178412;81;21280;-66
2021/03/14 09:24:54;;;;;;;12.30;3.22;;;;;;;8.30;57.98;97593.65;2178462;81;21316;-67
2021/03/14 09:27:56;;;;;;;15.88;3.58;;;;;;;8.37;56.67;97590.14;2178472;81;21304;-66
2021/03/14 09:30:58;;;;;;;16.52;3.37;;;;;;;8.41;56.78;97604.66;2178455;81;21264;-66
2021/03/14 09:34:00;;;;;;;16.17;3.80;;;;;;;8.22;57.02;97579.02;2178482;81;21261;-66
2021/03/14 09:37:02;;;;;;;10.08;2.65;;;;;;;8.25;57.17;97592.67;2178461;81;21574;-66
2021/03/14 09:40:04;;;;;;;12.73;3.30;;;;;;;8.41;54.01;97639.93;2178470;81;21300;-67
2021/03/14 09:43:06;;;;;;;15.63;3.15;;;;;;;8.70;55.55;97571.69;2178494;81;21712;-66
2021/03/14 09:46:08;;;;;;;14.00;2.60;;;;;;;9.02;53.62;97579.75;2178798;81;21713;-66
2021/03/14 09:49:10;;;;;;;10.82;2.40;;;;;;;9.23;53.98;97600.04;2178430;81;21296;-66
2021/03/14 09:52:12;;;;;;;9.98;2.58;;;;;;;9.54;53.20;97614.27;2178490;81;21281;-66
2021/03/14 09:55:15;;;;;;;14.30;3.08;;;;;;;9.81;52.72;97566.80;2150885;82;21269;-67
2021/03/14 09:58:17;;;;;;;;;;;;;;;10.03;53.52;97559.88;2153148;82;21280;-66
2021/03/14 10:01:19;;;;;;;14.50;2.90;;;;;;;10.20;50.39;97584.72;2178266;82;20440;-66
2021/03/14 10:04:21;;;;;;;13.72;2.92;;;;;;;9.95;49.60;97564.39;2178427;81;21292;-66
2021/03/14 10:07:23;;;;;;;13.78;3.40;;;;;;;10.00;51.51;97571.42;2178533;81;21758;-66
2021/03/14 10:10:25;;;;;;;12.03;2.87;;;;;;;10.01;49.87;97565.69;2178434;81;21288;-66
2021/03/14 10:13:27;;;;;;;13.25;2.72;;;;;;;10.07;49.76;97586.19;2178399;81;21300;-66
2021/03/14 10:16:29;;;;;;;13.93;3.35;;;;;;;9.62;50.27;97562.13;2178404;82;21277;-67
2021/03/14 10:19:31;;;;;;;10.08;2.55;;;;;;;9.75;49.01;97555.95;2178471;81;21276;-67
2021/03/14 10:22:33;;;;;;;8.95;2.40;;;;;;;9.94;50.05;97518.67;2178509;81;21257;-67
2021/03/14 10:25:35;;;;;;;12.73;2.77;;;;;;;9.52;47.40;97566.41;2178609;81;21166;-66
2021/03/14 10:28:38;;;;;;;10.55;2.50;;;;;;;9.29;50.25;97559.02;2178881;82;21170;-66
2021/03/14 10:31:40;;;;;;;8.73;2.17;;;;;;;8.94;48.68;97565.95;2178616;81;21134;-66
2021/03/14 10:34:42;;;;;;;12.33;3.02;;;;;;;8.69;49.22;97546.48;2178828;81;21700;-67
2021/03/14 10:37:44;;;;;;;9.00;2.55;;;;;;;8.87;50.48;97563.42;2178638;81;21138;-66
2021/03/14 10:40:46;;;;;;;;;;;;;;;9.41;49.46;97591.26;2181064;81;21099;-67
2021/03/14 10:43:48;;;;;;;15.90;2.90;;;;;;;9.46;49.31;97586.52;2178645;82;20416;-68
2021/03/14 10:46:50;;;;;;;11.60;2.90;;;;;;;9.96;48.54;97597.49;2150874;82;21261;-66
2021/03/14 10:49:53;;;;;;;8.95;2.12;;;;;;;9.92;46.64;97589.52;2178408;81;21272;-68
2021/03/14 10:52:55;;;;;;;12.00;2.92;;;;;;;9.45;45.98;97628.88;2178914;82;21566;-69
2021/03/14 10:55:58;;;;;;;14.25;2.83;;;;;;;9.25;47.31;97619.06;2178717;81;21569;-68
2021/03/14 10:59:01;;;;;;;14.75;3.80;;;;;;;9.08;49.40;97634.70;2178178;82;21111;-66
2021/03/14 11:02:04;;;;;;;10.00;2.90;;;;;;;9.07;50.31;97639.59;2178789;81;21138;-66
2021/03/14 11:05:07;;;;;;;15.63;3.83;;;;;;;9.16;48.09;97608.33;2178687;81;21721;-68
2021/03/14 11:08:09;;;;;;;12.58;2.65;;;;;;;9.33;48.99;97605.76;2178800;81;21107;-66
2021/03/14 11:11:11;;;;;;;14.78;3.25;;;;;;;9.91;47.61;97603.55;2178688;81;21686;-66
2021/03/14 11:14:13;;;;;;;16.77;3.45;;;;;;;10.43;46.60;97579.01;2166398;81;21301;-66
2021/03/14 11:17:15;;;;;;;15.98;3.77;;;;;;;10.73;48.25;97585.33;2161158;82;21590;-66
2021/03/14 11:20:17;;;;;;;16.77;3.37;;;;;;;10.68;46.00;97601.45;2161127;82;21171;-66
2021/03/14 11:23:19;;;;;;;14.58;3.25;;;;;;;10.22;45.90;97612.95;2161407;82;21286;-66
2021/03/14 11:26:21;;;;;;;17.52;4.05;;;;;;;9.86;46.82;97603.92;2161204;82;21582;-66
2021/03/14 11:29:24;;;;;;;19.32;4.10;;;;;;;9.79;47.75;97603.22;2161465;82;21290;-67
2021/03/14 11:32:26;;;;;;;13.48;3.40;;;;;;;9.70;47.25;97606.07;2161225;82;21139;-68
2021/03/14 11:35:28;;;;;;;16.85;3.87;;;;;;;9.58;47.76;97618.78;2140210;82;21135;-68
2021/03/14 11:38:31;;;;;;;11.57;3.17;;;;;;;9.63;48.58;97614.86;2161507;82;21689;-66
2021/03/14 11:41:33;;;;;;;12.58;3.20;;;;;;;9.58;47.74;97637.10;2161082;82;21607;-66
2021/03/14 11:44:35;;;;;;;14.58;3.47;;;;;;;9.69;48.99;97624.03;2161313;82;21730;-66
2021/03/14 11:47:37;;;;;;;;;;;;;;;9.87;46.71;97617.87;2163815;82;21285;-68
2021/03/14 11:50:40;;;;;;;16.77;4.13;;;;;;;10.20;47.00;97603.06;2161178;82;20123;-67
2021/03/14 11:53:43;;;;;;;22.30;4.97;;;;;;;10.05;44.49;97626.89;2161069;82;21377;-68
2021/03/14 11:56:45;;;;;;;18.98;5.00;;;;;;;9.88;46.73;97610.34;2161570;82;21277;-67
2021/03/14 11:59:47;;;;;;;14.45;3.30;;;;;;;10.19;45.15;97619.75;2161562;82;21305;-66
2021/03/14 12:02:49;;;;;;;16.05;3.17;;;;;;;10.56;43.74;97622.94;2161097;82;21587;-67
2021/03/14 12:05:51;;;;;;;10.48;2.52;;;;;;;10.37;44.37;97594.75;2139974;82;21155;-67
2021/03/14 12:08:53;;;;;;;10.63;2.35;;;;;;;10.16;44.69;97602.48;2140020;82;21266;-67
2021/03/14 12:11:58;;;;;;;14.58;3.65;;;;;;;10.33;42.82;97626.05;2160988;82;21099;-67
2021/03/14 12:15:00;;;;;;;8.25;2.25;;;;;;;10.08;44.43;97617.14;2176202;82;21186;-67
2021/03/14 12:18:03;;;;;;;8.28;2.12;;;;;;;9.69;43.42;97634.50;2178541;81;21280;-66
2021/03/14 12:21:05;;;;;;;7.35;2.20;;;;;;;9.45;45.24;97628.88;2178508;81;21264;-73
2021/03/14 12:24:07;;;;;;;8.03;1.90;;;;;;;9.51;43.81;97625.80;2178481;81;21268;-67
2021/03/14 12:27:09;;;;;;;9.05;1.80;;;;;;;9.96;44.81;97621.56;2178512;81;21293;-69
2021/03/14 12:30:11;;;;;;;8.60;2.42;;;;;;;10.21;42.31;97627.86;2178471;81;21264;-70
2021/03/14 12:33:13;;;;;;;10.20;2.60;;;;;;;10.48;43.09;97616.64;2178508;81;21276;-67
2021/03/14 12:36:16;;;;;;;10.08;2.52;;;;;;;10.89;42.15;97627.73;2178627;81;21167;-69
2021/03/14 12:39:18;;;;;;;11.68;2.67;;;;;;;11.03;40.21;97612.19;2178501;81;21795;-66
2021/03/14 12:42:20;;;;;;;10.48;2.42;;;;;;;10.65;42.04;97617.43;2178717;81;21724;-66
2021/03/14 12:45:22;;;;;;;10.25;2.25;;;;;;;10.53;40.76;97608.77;2178488;81;21312;-66
2021/03/14 12:48:24;;;;;;;15.68;3.40;;;;;;;10.23;42.44;97618.56;2178489;81;21265;-66
2021/03/14 12:51:26;;;;;;;18.40;4.25;;;;;;;10.04;41.85;97616.53;2178479;81;21265;-66
2021/03/14 12:54:28;;;;;;;13.43;3.00;;;;;;;10.08;44.00;97602.24;2178506;81;21304;-66
2021/03/14 12:57:30;;;;;;;9.95;2.83;;;;;;;9.97;42.94;97625.36;2178501;81;21276;-66
2021/03/14 13:00:32;;;;;;;12.90;3.22;;;;;;;9.73;42.83;97640.35;2178612;81;21273;-66
2021/03/14 13:03:35;;;;;;;;;;;;;;;9.54;42.69;97631.28;2181027;82;21595;-66
2021/03/14 13:06:37;;;;;;;10.87;2.63;;;;;;;9.43;44.39;97631.25;2178810;82;20232;-67
2021/03/14 13:09:39;;;;;;;8.60;2.50;;;;;;;9.24;43.49;97643.09;2178409;81;21316;-66
2021/03/14 13:12:41;;;;;;;12.25;2.67;;;;;;;8.97;44.01;97635.50;2178518;81;21134;-67
2021/03/14 13:15:43;;;;;;;10.10;2.35;;;;;;;8.83;46.55;97639.11;2161079;82;21143;-66
2021/03/14 13:18:45;;;;;;;8.30;2.80;;;;;;;8.73;46.39;97662.95;2161084;82;21107;-67
2021/03/14 13:21:48;;;;;;;11.33;2.37;;;;;;;8.74;47.52;97656.30;2161005;82;21638;-66
2021/03/14 13:24:50;;;;;;;9.38;2.20;;;;;;;8.71;47.89;97659.14;2160877;82;21131;-67
2021/03/14 13:27:54;;;;;;;7.22;2.37;;;;;;;8.72;47.22;97666.50;2140052;82;21144;-66
2021/03/14 13:30:56;;;;;;;8.83;2.35;;;;;;;8.71;47.39;97668.30;2160949;82;21599;-67
2021/03/14 13:33:58;;;;;;;10.78;2.62;;;;;;;8.65;47.35;97676.10;2161054;82;21749;-67
2021/03/14 13:37:00;;;;;;;7.12;2.35;;;;;;;8.61;47.22;97698.66;2138779;82;21757;-69
2021/03/14 13:40:03;;;;;;;7.45;2.12;;;;;;;8.58;46.82;97703.62;2160916;81;21313;-66
2021/03/14 13:43:05;;;;;;;11.18;2.62;;;;;;;8.53;47.22;97687.90;2161037;82;21147;-66
2021/03/14 13:46:08;;;;;;;;;;;;;;;8.53;47.80;97695.73;2163596;82;21183;-68
2021/03/14 13:49:10;;;;;;;11.40;3.05;;;;;;;8.51;47.98;97703.69;2161137;82;20398;-67
2021/03/14 13:52:12;;;;;;;14.43;3.50;;;;;;;8.43;47.92;97722.95;2161100;82;21139;-66
2021/03/14 13:55:14;;;;;;;10.45;2.45;;;;;;;8.33;48.12;97739.73;2161035;82;21159;-66
2021/03/14 13:58:34;;;;;;;15.18;3.55;;;;;;;8.23;46.63;97726.95;2161109;82;21281;-66
2021/03/14 14:01:36;;;;;;;12.18;2.98;;;;;;;8.13;47.14;97724.13;2161207;82;21269;-66
2021/03/14 14:04:38;;;;;;;17.75;3.30;;;;;;;8.18;48.28;97728.58;2161159;82;21285;-66
2021/03/14 14:07:40;;;;;;;15.25;3.62;;;;;;;8.27;48.57;97729.72;2161209;82;21297;-66
2021/03/14 14:10:42;;;;;;;9.70;2.40;;;;;;;8.37;48.94;97725.52;2161206;82;21127;-66
2021/03/14 14:13:44;;;;;;;14.18;3.08;;;;;;;8.36;47.75;97747.84;2164019;81;21293;-66
2021/03/14 14:16:46;;;;;;;11.78;3.17;;;;;;;8.42;48.02;97729.97;2171373;82;21265;-66